createdAt,value
2024-03-02T00:00:20.000Z,0
2024-03-02T00:01:24.000Z,0
2024-03-02T00:02:28.000Z,0
2024-03-02T00:03:32.000Z,0
2024-03-02T00:04:36.000Z,0
2024-03-02T00:05:41.000Z,0
2024-03-02T00:06:45.000Z,0
2024-03-02T00:07:49.000Z,0
2024-03-02T00:08:53.000Z,0
2024-03-02T00:09:57.000Z,0
2024-03-02T00:11:01.000Z,0
2024-03-02T00:12:05.000Z,0
2024-03-02T00:13:10.000Z,0
2024-03-02T00:14:14.000Z,0
2024-03-02T00:15:18.000Z,0
2024-03-02T00:16:22.000Z,0
2024-03-02T00:17:26.000Z,0
2024-03-02T00:18:30.000Z,0
2024-03-02T00:19:34.000Z,0
2024-03-02T00:20:38.000Z,0
2024-03-02T00:21:43.000Z,0
2024-03-02T00:22:47.000Z,0
2024-03-02T00:23:51.000Z,0
2024-03-02T00:24:55.000Z,0
2024-03-02T00:25:59.000Z,0
2024-03-02T00:27:03.000Z,0
2024-03-02T00:28:08.000Z,0
2024-03-02T00:29:12.000Z,0
2024-03-02T00:30:16.000Z,0
2024-03-02T00:31:20.000Z,0
2024-03-02T00:32:24.000Z,0
2024-03-02T00:33:28.000Z,0
2024-03-02T00:34:33.000Z,0
2024-03-02T00:35:37.000Z,0
2024-03-02T00:36:41.000Z,0
2024-03-02T00:37:45.000Z,0
2024-03-02T00:38:49.000Z,0
2024-03-02T00:39:53.000Z,0
2024-03-02T00:40:58.000Z,0
2024-03-02T00:42:02.000Z,0
2024-03-02T00:43:06.000Z,0
2024-03-02T00:44:10.000Z,0
2024-03-02T00:45:14.000Z,0
2024-03-02T00:46:18.000Z,0
2024-03-02T00:47:22.000Z,0
2024-03-02T00:48:27.000Z,0
2024-03-02T00:49:31.000Z,0
2024-03-02T00:50:35.000Z,0
2024-03-02T00:51:39.000Z,0
2024-03-02T00:52:43.000Z,0
2024-03-02T00:53:47.000Z,0
2024-03-02T00:54:52.000Z,0
2024-03-02T00:55:56.000Z,0
2024-03-02T00:57:00.000Z,0
2024-03-02T00:58:04.000Z,0
2024-03-02T00:59:08.000Z,0
2024-03-02T01:00:12.000Z,0
2024-03-02T01:01:17.000Z,0
2024-03-02T01:02:21.000Z,0
2024-03-02T01:03:25.000Z,0
2024-03-02T01:04:29.000Z,0
2024-03-02T01:05:33.000Z,0
2024-03-02T01:06:37.000Z,0
2024-03-02T01:07:41.000Z,0
2024-03-02T01:08:46.000Z,0
2024-03-02T01:09:50.000Z,0
2024-03-02T01:10:54.000Z,0
2024-03-02T01:11:58.000Z,0
2024-03-02T01:13:02.000Z,0
2024-03-02T01:14:06.000Z,0
2024-03-02T01:15:10.000Z,0
2024-03-02T01:16:15.000Z,0
2024-03-02T01:17:19.000Z,0
2024-03-02T01:18:23.000Z,0
2024-03-02T01:19:27.000Z,0
2024-03-02T01:20:31.000Z,0
2024-03-02T01:21:35.000Z,0
2024-03-02T01:22:40.000Z,0
2024-03-02T01:23:44.000Z,0
2024-03-02T01:24:48.000Z,0
2024-03-02T01:25:52.000Z,0
2024-03-02T01:26:56.000Z,0
2024-03-02T01:28:00.000Z,0
2024-03-02T01:29:04.000Z,0
2024-03-02T01:30:09.000Z,0
2024-03-02T01:31:13.000Z,0
2024-03-02T01:32:17.000Z,0
2024-03-02T01:33:21.000Z,0
2024-03-02T01:34:25.000Z,0
2024-03-02T01:35:29.000Z,0
2024-03-02T01:36:33.000Z,0
2024-03-02T01:37:38.000Z,0
2024-03-02T01:38:42.000Z,0
2024-03-02T01:39:46.000Z,0
2024-03-02T01:40:50.000Z,0
2024-03-02T01:41:54.000Z,0
2024-03-02T01:42:58.000Z,0
2024-03-02T01:44:02.000Z,0
2024-03-02T01:45:06.000Z,0
2024-03-02T01:46:11.000Z,0
2024-03-02T01:47:15.000Z,0
2024-03-02T01:48:19.000Z,0
2024-03-02T01:49:23.000Z,0
2024-03-02T01:50:27.000Z,0
2024-03-02T01:51:31.000Z,0
2024-03-02T01:52:36.000Z,0
2024-03-02T01:53:40.000Z,0
2024-03-02T01:54:44.000Z,0
2024-03-02T01:55:48.000Z,0
2024-03-02T01:56:52.000Z,0
2024-03-02T01:57:56.000Z,0
2024-03-02T01:59:00.000Z,0
2024-03-02T02:00:05.000Z,0
2024-03-02T02:01:09.000Z,0
2024-03-02T02:02:13.000Z,0
2024-03-02T02:03:17.000Z,0
2024-03-02T02:04:21.000Z,0
2024-03-02T02:05:25.000Z,0
2024-03-02T02:06:30.000Z,0
2024-03-02T02:07:34.000Z,0
2024-03-02T02:08:38.000Z,0
2024-03-02T02:09:42.000Z,0
2024-03-02T02:10:46.000Z,0
2024-03-02T02:11:50.000Z,0
2024-03-02T02:12:54.000Z,0
2024-03-02T02:13:59.000Z,0
2024-03-02T02:15:03.000Z,0
2024-03-02T02:16:07.000Z,0
2024-03-02T02:17:11.000Z,0
2024-03-02T02:18:15.000Z,0
2024-03-02T02:19:19.000Z,0
2024-03-02T02:20:23.000Z,0
2024-03-02T02:21:28.000Z,0
2024-03-02T02:22:32.000Z,0
2024-03-02T02:23:36.000Z,0
2024-03-02T02:24:40.000Z,0
2024-03-02T02:25:44.000Z,0
2024-03-02T02:26:48.000Z,0
2024-03-02T02:27:52.000Z,0
2024-03-02T02:28:56.000Z,0
2024-03-02T02:30:01.000Z,0
2024-03-02T02:31:05.000Z,0
2024-03-02T02:32:09.000Z,0
2024-03-02T02:33:13.000Z,0
2024-03-02T02:34:17.000Z,0
2024-03-02T02:35:22.000Z,0
2024-03-02T02:36:26.000Z,0
2024-03-02T02:37:30.000Z,0
2024-03-02T02:38:34.000Z,0
2024-03-02T02:39:38.000Z,0
2024-03-02T02:40:42.000Z,0
2024-03-02T02:41:47.000Z,0
2024-03-02T02:42:51.000Z,0
2024-03-02T02:43:55.000Z,0
2024-03-02T02:44:59.000Z,0
2024-03-02T02:46:03.000Z,0
2024-03-02T02:47:07.000Z,0
2024-03-02T02:48:12.000Z,0
2024-03-02T02:49:16.000Z,0
2024-03-02T02:50:20.000Z,0
2024-03-02T02:51:24.000Z,0
2024-03-02T02:52:28.000Z,0
2024-03-02T02:53:32.000Z,0
2024-03-02T02:54:36.000Z,0
2024-03-02T02:55:41.000Z,0
2024-03-02T02:56:45.000Z,0
2024-03-02T02:57:49.000Z,0
2024-03-02T02:58:53.000Z,0
2024-03-02T02:59:57.000Z,0
2024-03-02T03:01:01.000Z,0
2024-03-02T03:02:06.000Z,0
2024-03-02T03:03:10.000Z,0
2024-03-02T03:04:14.000Z,0
2024-03-02T03:05:18.000Z,0
2024-03-02T03:06:22.000Z,0
2024-03-02T03:07:26.000Z,0
2024-03-02T03:08:30.000Z,0
2024-03-02T03:09:35.000Z,0
2024-03-02T03:10:39.000Z,0
2024-03-02T03:11:43.000Z,0
2024-03-02T03:12:47.000Z,0
2024-03-02T03:13:51.000Z,0
2024-03-02T03:14:55.000Z,0
2024-03-02T03:15:59.000Z,0
2024-03-02T03:17:04.000Z,0
2024-03-02T03:18:08.000Z,0
2024-03-02T03:19:12.000Z,0
2024-03-02T03:20:16.000Z,0
2024-03-02T03:21:20.000Z,0
2024-03-02T03:22:24.000Z,0
2024-03-02T03:23:28.000Z,0
2024-03-02T03:24:33.000Z,0
2024-03-02T03:25:37.000Z,0
2024-03-02T03:26:41.000Z,0
2024-03-02T03:27:45.000Z,0
2024-03-02T03:28:49.000Z,0
2024-03-02T03:29:53.000Z,0
2024-03-02T03:30:57.000Z,0
2024-03-02T03:32:02.000Z,0
2024-03-02T03:33:06.000Z,0
2024-03-02T03:34:10.000Z,0
2024-03-02T03:35:14.000Z,0
2024-03-02T03:36:18.000Z,0
2024-03-02T03:37:22.000Z,0
2024-03-02T03:38:27.000Z,0
2024-03-02T03:39:31.000Z,0
2024-03-02T03:40:35.000Z,0
2024-03-02T03:41:39.000Z,0
2024-03-02T03:42:43.000Z,0
2024-03-02T03:43:47.000Z,0
2024-03-02T03:44:51.000Z,0
2024-03-02T03:45:55.000Z,0
2024-03-02T03:47:00.000Z,0
2024-03-02T03:48:04.000Z,0
2024-03-02T03:49:08.000Z,0
2024-03-02T03:50:12.000Z,0
2024-03-02T03:51:16.000Z,0
2024-03-02T03:52:20.000Z,0
2024-03-02T03:53:24.000Z,0
2024-03-02T03:54:29.000Z,0
2024-03-02T03:55:33.000Z,0
2024-03-02T03:56:37.000Z,0
2024-03-02T03:57:41.000Z,0
2024-03-02T03:58:45.000Z,0
2024-03-02T03:59:50.000Z,0
2024-03-02T04:00:54.000Z,0
2024-03-02T04:01:58.000Z,0
2024-03-02T04:03:02.000Z,0
2024-03-02T04:04:06.000Z,0
2024-03-02T04:05:10.000Z,0
2024-03-02T04:06:15.000Z,0
2024-03-02T04:07:19.000Z,0
2024-03-02T04:08:23.000Z,0
2024-03-02T04:09:27.000Z,0
2024-03-02T04:10:31.000Z,0
2024-03-02T04:11:35.000Z,0
2024-03-02T04:12:39.000Z,0
2024-03-02T04:13:44.000Z,0
2024-03-02T04:14:48.000Z,0
2024-03-02T04:15:52.000Z,0
2024-03-02T04:16:56.000Z,0
2024-03-02T04:18:00.000Z,0
2024-03-02T04:19:04.000Z,0
2024-03-02T04:20:08.000Z,0
2024-03-02T04:21:13.000Z,0
2024-03-02T04:22:17.000Z,0
2024-03-02T04:23:21.000Z,0
2024-03-02T04:24:25.000Z,0
2024-03-02T04:25:29.000Z,0
2024-03-02T04:26:33.000Z,0
2024-03-02T04:27:37.000Z,0
2024-03-02T04:28:42.000Z,0
2024-03-02T04:29:46.000Z,0
2024-03-02T04:30:50.000Z,0
2024-03-02T04:31:54.000Z,0
2024-03-02T04:32:58.000Z,0
2024-03-02T04:34:02.000Z,0
2024-03-02T04:35:07.000Z,0
2024-03-02T04:36:11.000Z,0
2024-03-02T04:37:15.000Z,0
2024-03-02T04:38:19.000Z,0
2024-03-02T04:39:23.000Z,0
2024-03-02T04:40:27.000Z,0
2024-03-02T04:41:32.000Z,0
2024-03-02T04:42:36.000Z,0
2024-03-02T04:43:40.000Z,0
2024-03-02T04:44:44.000Z,0
2024-03-02T04:45:48.000Z,0
2024-03-02T04:46:52.000Z,0
2024-03-02T04:47:56.000Z,0
2024-03-02T04:49:01.000Z,0
2024-03-02T04:50:05.000Z,0
2024-03-02T04:51:09.000Z,0
2024-03-02T04:52:13.000Z,0
2024-03-02T04:53:17.000Z,0
2024-03-02T04:54:21.000Z,0
2024-03-02T04:55:25.000Z,0
2024-03-02T04:56:30.000Z,0
2024-03-02T04:57:34.000Z,0
2024-03-02T04:58:38.000Z,0
2024-03-02T04:59:42.000Z,0
2024-03-02T05:00:46.000Z,0
2024-03-02T05:01:50.000Z,0
2024-03-02T05:02:55.000Z,0
2024-03-02T05:03:59.000Z,0
2024-03-02T05:05:03.000Z,0
2024-03-02T05:06:07.000Z,0
2024-03-02T05:07:11.000Z,0
2024-03-02T05:08:15.000Z,0
2024-03-02T05:09:19.000Z,0
2024-03-02T05:10:24.000Z,0
2024-03-02T05:11:28.000Z,0
2024-03-02T05:12:32.000Z,0
2024-03-02T05:13:36.000Z,0
2024-03-02T05:14:40.000Z,0
2024-03-02T05:15:44.000Z,0
2024-03-02T05:16:48.000Z,0
2024-03-02T05:17:53.000Z,0
2024-03-02T05:18:57.000Z,0
2024-03-02T05:20:01.000Z,0
2024-03-02T05:21:05.000Z,0
2024-03-02T05:22:09.000Z,0
2024-03-02T05:23:13.000Z,0
2024-03-02T05:24:17.000Z,0
2024-03-02T05:25:22.000Z,0
2024-03-02T05:26:26.000Z,0
2024-03-02T05:27:30.000Z,0
2024-03-02T05:28:34.000Z,0
2024-03-02T05:29:38.000Z,0
2024-03-02T05:30:42.000Z,0
2024-03-02T05:31:47.000Z,0
2024-03-02T05:32:51.000Z,0
2024-03-02T05:33:55.000Z,0
2024-03-02T05:34:59.000Z,0
2024-03-02T05:36:04.000Z,0
2024-03-02T05:37:08.000Z,0
2024-03-02T05:38:12.000Z,0
2024-03-02T05:39:16.000Z,0
2024-03-02T05:40:20.000Z,0
2024-03-02T05:41:24.000Z,0
2024-03-02T05:42:28.000Z,0
2024-03-02T05:43:32.000Z,0
2024-03-02T05:44:37.000Z,0
2024-03-02T05:45:41.000Z,1
2024-03-02T05:46:45.000Z,1
2024-03-02T05:47:49.000Z,1
2024-03-02T05:48:53.000Z,1
2024-03-02T05:49:57.000Z,1
2024-03-02T05:51:01.000Z,1
2024-03-02T05:52:06.000Z,1
2024-03-02T05:53:10.000Z,2
2024-03-02T05:54:14.000Z,2
2024-03-02T05:55:18.000Z,2
2024-03-02T05:56:22.000Z,2
2024-03-02T05:57:26.000Z,2
2024-03-02T05:58:30.000Z,3
2024-03-02T05:59:35.000Z,3
2024-03-02T06:00:39.000Z,3
2024-03-02T06:01:43.000Z,3
2024-03-02T06:02:47.000Z,4
2024-03-02T06:03:51.000Z,4
2024-03-02T06:04:56.000Z,4
2024-03-02T06:06:00.000Z,4
2024-03-02T06:07:04.000Z,5
2024-03-02T06:08:08.000Z,5
2024-03-02T06:09:12.000Z,5
2024-03-02T06:10:16.000Z,5
2024-03-02T06:11:20.000Z,5
2024-03-02T06:12:25.000Z,5
2024-03-02T06:13:29.000Z,6
2024-03-02T06:14:33.000Z,6
2024-03-02T06:15:37.000Z,7
2024-03-02T06:16:41.000Z,7
2024-03-02T06:17:45.000Z,8
2024-03-02T06:18:49.000Z,8
2024-03-02T06:19:54.000Z,9
2024-03-02T06:20:58.000Z,9
2024-03-02T06:22:02.000Z,10
2024-03-02T06:23:06.000Z,10
2024-03-02T06:24:10.000Z,10
2024-03-02T06:25:14.000Z,11
2024-03-02T06:26:18.000Z,11
2024-03-02T06:27:22.000Z,12
2024-03-02T06:28:27.000Z,12
2024-03-02T06:29:31.000Z,13
2024-03-02T06:30:35.000Z,14
2024-03-02T06:31:39.000Z,14
2024-03-02T06:32:43.000Z,15
2024-03-02T06:33:48.000Z,16
2024-03-02T06:34:52.000Z,16
2024-03-02T06:35:56.000Z,17
2024-03-02T06:37:00.000Z,18
2024-03-02T06:38:04.000Z,18
2024-03-02T06:39:08.000Z,19
2024-03-02T06:40:12.000Z,20
2024-03-02T06:41:17.000Z,20
2024-03-02T06:42:21.000Z,21
2024-03-02T06:43:25.000Z,21
2024-03-02T06:44:29.000Z,22
2024-03-02T06:45:33.000Z,22
2024-03-02T06:46:37.000Z,22
2024-03-02T06:47:41.000Z,22
2024-03-02T06:48:46.000Z,23
2024-03-02T06:49:50.000Z,23
2024-03-02T06:50:54.000Z,24
2024-03-02T06:51:58.000Z,25
2024-03-02T06:53:02.000Z,25
2024-03-02T06:54:06.000Z,26
2024-03-02T06:55:10.000Z,28
2024-03-02T06:56:15.000Z,29
2024-03-02T06:57:19.000Z,30
2024-03-02T06:58:23.000Z,32
2024-03-02T06:59:27.000Z,33
2024-03-02T07:00:31.000Z,34
2024-03-02T07:01:35.000Z,34
2024-03-02T07:02:39.000Z,35
2024-03-02T07:03:44.000Z,35
2024-03-02T07:04:48.000Z,36
2024-03-02T07:05:52.000Z,37
2024-03-02T07:06:56.000Z,37
2024-03-02T07:08:00.000Z,39
2024-03-02T07:09:05.000Z,41
2024-03-02T07:10:09.000Z,43
2024-03-02T07:11:13.000Z,46
2024-03-02T07:12:17.000Z,49
2024-03-02T07:13:21.000Z,51
2024-03-02T07:14:25.000Z,53
2024-03-02T07:15:30.000Z,55
2024-03-02T07:16:34.000Z,56
2024-03-02T07:17:38.000Z,57
2024-03-02T07:18:42.000Z,58
2024-03-02T07:19:46.000Z,57
2024-03-02T07:20:50.000Z,57
2024-03-02T07:21:54.000Z,57
2024-03-02T07:22:59.000Z,58
2024-03-02T07:24:03.000Z,58
2024-03-02T07:25:07.000Z,59
2024-03-02T07:26:11.000Z,57
2024-03-02T07:27:15.000Z,56
2024-03-02T07:28:19.000Z,56
2024-03-02T07:29:23.000Z,55
2024-03-02T07:30:28.000Z,53
2024-03-02T07:31:32.000Z,52
2024-03-02T07:32:36.000Z,50
2024-03-02T07:33:40.000Z,48
2024-03-02T07:34:44.000Z,46
2024-03-02T07:35:48.000Z,45
2024-03-02T07:36:52.000Z,44
2024-03-02T07:37:56.000Z,43
2024-03-02T07:39:01.000Z,43
2024-03-02T07:40:05.000Z,43
2024-03-02T07:41:09.000Z,44
2024-03-02T07:42:13.000Z,42
2024-03-02T07:43:17.000Z,42
2024-03-02T07:44:21.000Z,42
2024-03-02T07:45:25.000Z,42
2024-03-02T07:46:30.000Z,43
2024-03-02T07:47:34.000Z,43
2024-03-02T07:48:38.000Z,43
2024-03-02T07:49:42.000Z,44
2024-03-02T07:50:46.000Z,44
2024-03-02T07:51:50.000Z,44
2024-03-02T07:52:54.000Z,45
2024-03-02T07:53:58.000Z,45
2024-03-02T07:55:03.000Z,46
2024-03-02T07:56:07.000Z,48
2024-03-02T07:57:11.000Z,50
2024-03-02T07:58:15.000Z,53
2024-03-02T07:59:19.000Z,57
2024-03-02T08:00:23.000Z,60
2024-03-02T08:01:27.000Z,64
2024-03-02T08:02:32.000Z,67
2024-03-02T08:03:36.000Z,70
2024-03-02T08:04:40.000Z,72
2024-03-02T08:05:44.000Z,72
2024-03-02T08:06:48.000Z,73
2024-03-02T08:07:52.000Z,75
2024-03-02T08:08:56.000Z,77
2024-03-02T08:10:01.000Z,79
2024-03-02T08:11:05.000Z,81
2024-03-02T08:12:09.000Z,83
2024-03-02T08:13:13.000Z,85
2024-03-02T08:14:17.000Z,87
2024-03-02T08:15:21.000Z,89
2024-03-02T08:16:26.000Z,93
2024-03-02T08:17:30.000Z,98
2024-03-02T08:18:34.000Z,101
2024-03-02T08:19:38.000Z,103
2024-03-02T08:20:42.000Z,103
2024-03-02T08:21:46.000Z,103
2024-03-02T08:22:51.000Z,103
2024-03-02T08:23:55.000Z,104
2024-03-02T08:24:59.000Z,105
2024-03-02T08:26:03.000Z,106
2024-03-02T08:27:07.000Z,107
2024-03-02T08:28:11.000Z,105
2024-03-02T08:29:15.000Z,106
2024-03-02T08:30:20.000Z,108
2024-03-02T08:31:24.000Z,113
2024-03-02T08:32:28.000Z,118
2024-03-02T08:33:32.000Z,122
2024-03-02T08:34:36.000Z,127
2024-03-02T08:35:40.000Z,130
2024-03-02T08:36:44.000Z,131
2024-03-02T08:37:49.000Z,133
2024-03-02T08:38:53.000Z,134
2024-03-02T08:39:57.000Z,135
2024-03-02T08:41:01.000Z,136
2024-03-02T08:42:05.000Z,135
2024-03-02T08:43:09.000Z,133
2024-03-02T08:44:13.000Z,129
2024-03-02T08:45:18.000Z,126
2024-03-02T08:46:22.000Z,125
2024-03-02T08:47:26.000Z,125
2024-03-02T08:48:30.000Z,124
2024-03-02T08:49:34.000Z,125
2024-03-02T08:50:38.000Z,125
2024-03-02T08:51:43.000Z,126
2024-03-02T08:52:47.000Z,124
2024-03-02T08:53:51.000Z,123
2024-03-02T08:54:55.000Z,122
2024-03-02T08:55:59.000Z,124
2024-03-02T08:57:03.000Z,129
2024-03-02T08:58:07.000Z,136
2024-03-02T08:59:12.000Z,143
2024-03-02T09:00:16.000Z,150
2024-03-02T09:01:20.000Z,154
2024-03-02T09:02:24.000Z,157
2024-03-02T09:03:28.000Z,155
2024-03-02T09:04:32.000Z,153
2024-03-02T09:05:36.000Z,153
2024-03-02T09:06:41.000Z,152
2024-03-02T09:07:45.000Z,149
2024-03-02T09:08:49.000Z,145
2024-03-02T09:09:53.000Z,142
2024-03-02T09:10:57.000Z,139
2024-03-02T09:12:01.000Z,138
2024-03-02T09:13:05.000Z,137
2024-03-02T09:14:10.000Z,137
2024-03-02T09:15:14.000Z,138
2024-03-02T09:16:18.000Z,138
2024-03-02T09:17:22.000Z,137
2024-03-02T09:18:26.000Z,137
2024-03-02T09:19:30.000Z,138
2024-03-02T09:20:34.000Z,138
2024-03-02T09:21:39.000Z,138
2024-03-02T09:22:43.000Z,139
2024-03-02T09:23:47.000Z,141
2024-03-02T09:24:51.000Z,143
2024-03-02T09:25:55.000Z,145
2024-03-02T09:26:59.000Z,146
2024-03-02T09:28:03.000Z,149
2024-03-02T09:29:08.000Z,150
2024-03-02T09:30:12.000Z,148
2024-03-02T09:31:16.000Z,146
2024-03-02T09:32:20.000Z,142
2024-03-02T09:33:24.000Z,138
2024-03-02T09:34:28.000Z,133
2024-03-02T09:35:32.000Z,131
2024-03-02T09:36:37.000Z,132
2024-03-02T09:37:41.000Z,132
2024-03-02T09:38:45.000Z,136
2024-03-02T09:39:49.000Z,142
2024-03-02T09:40:53.000Z,147
2024-03-02T09:41:57.000Z,149
2024-03-02T09:43:01.000Z,151
2024-03-02T09:44:06.000Z,153
2024-03-02T09:45:10.000Z,156
2024-03-02T09:46:14.000Z,156
2024-03-02T09:47:18.000Z,157
2024-03-02T09:48:22.000Z,158
2024-03-02T09:49:26.000Z,157
2024-03-02T09:50:30.000Z,156
2024-03-02T09:51:35.000Z,154
2024-03-02T09:52:39.000Z,153
2024-03-02T09:53:43.000Z,154
2024-03-02T09:54:47.000Z,156
2024-03-02T09:55:51.000Z,159
2024-03-02T09:56:55.000Z,165
2024-03-02T09:58:00.000Z,167
2024-03-02T09:59:04.000Z,174
2024-03-02T10:00:08.000Z,180
2024-03-02T10:01:12.000Z,185
2024-03-02T10:02:16.000Z,189
2024-03-02T10:03:20.000Z,193
2024-03-02T10:04:24.000Z,196
2024-03-02T10:05:29.000Z,198
2024-03-02T10:06:33.000Z,197
2024-03-02T10:07:37.000Z,197
2024-03-02T10:08:41.000Z,198
2024-03-02T10:09:45.000Z,196
2024-03-02T10:10:49.000Z,194
2024-03-02T10:11:53.000Z,190
2024-03-02T10:12:58.000Z,186
2024-03-02T10:14:02.000Z,184
2024-03-02T10:15:06.000Z,186
2024-03-02T10:16:10.000Z,184
2024-03-02T10:17:14.000Z,185
2024-03-02T10:18:18.000Z,186
2024-03-02T10:19:22.000Z,186
2024-03-02T10:20:26.000Z,184
2024-03-02T10:21:31.000Z,179
2024-03-02T10:22:35.000Z,176
2024-03-02T10:23:39.000Z,175
2024-03-02T10:24:43.000Z,182
2024-03-02T10:25:47.000Z,194
2024-03-02T10:26:51.000Z,220
2024-03-02T10:27:56.000Z,265
2024-03-02T10:29:00.000Z,289
2024-03-02T10:30:04.000Z,294
2024-03-02T10:31:08.000Z,282
2024-03-02T10:32:12.000Z,273
2024-03-02T10:33:16.000Z,308
2024-03-02T10:34:21.000Z,267
2024-03-02T10:35:25.000Z,320
2024-03-02T10:36:29.000Z,335
2024-03-02T10:37:33.000Z,354
2024-03-02T10:38:37.000Z,319
2024-03-02T10:39:41.000Z,337
2024-03-02T10:40:45.000Z,363
2024-03-02T10:41:50.000Z,363
2024-03-02T10:42:54.000Z,307
2024-03-02T10:43:58.000Z,285
2024-03-02T10:45:02.000Z,293
2024-03-02T10:46:06.000Z,269
2024-03-02T10:47:10.000Z,309
2024-03-02T10:48:14.000Z,331
2024-03-02T10:49:18.000Z,317
2024-03-02T10:50:23.000Z,358
2024-03-02T10:51:27.000Z,385
2024-03-02T10:52:31.000Z,381
2024-03-02T10:53:35.000Z,392
2024-03-02T10:54:39.000Z,400
2024-03-02T10:55:43.000Z,399
2024-03-02T10:56:48.000Z,379
2024-03-02T10:57:52.000Z,344
2024-03-02T10:58:56.000Z,326
2024-03-02T11:00:00.000Z,316
2024-03-02T11:01:04.000Z,319
2024-03-02T11:02:08.000Z,381
2024-03-02T11:03:12.000Z,403
2024-03-02T11:04:17.000Z,374
2024-03-02T11:05:21.000Z,391
2024-03-02T11:06:25.000Z,311
2024-03-02T11:07:29.000Z,272
2024-03-02T11:08:33.000Z,250
2024-03-02T11:09:37.000Z,195
2024-03-02T11:10:42.000Z,201
2024-03-02T11:11:46.000Z,242
2024-03-02T11:12:50.000Z,322
2024-03-02T11:13:54.000Z,257
2024-03-02T11:14:58.000Z,258
2024-03-02T11:16:02.000Z,275
2024-03-02T11:17:06.000Z,346
2024-03-02T11:18:11.000Z,377
2024-03-02T11:19:15.000Z,353
2024-03-02T11:20:19.000Z,375
2024-03-02T11:21:23.000Z,295
2024-03-02T11:22:27.000Z,257
2024-03-02T11:23:31.000Z,327
2024-03-02T11:24:35.000Z,380
2024-03-02T11:25:40.000Z,366
2024-03-02T11:26:44.000Z,342
2024-03-02T11:27:48.000Z,341
2024-03-02T11:28:52.000Z,286
2024-03-02T11:29:56.000Z,269
2024-03-02T11:31:00.000Z,323
2024-03-02T11:32:04.000Z,310
2024-03-02T11:33:09.000Z,289
2024-03-02T11:34:13.000Z,308
2024-03-02T11:35:17.000Z,296
2024-03-02T11:36:21.000Z,311
2024-03-02T11:37:25.000Z,314
2024-03-02T11:38:29.000Z,340
2024-03-02T11:39:33.000Z,402
2024-03-02T11:40:38.000Z,392
2024-03-02T11:41:42.000Z,389
2024-03-02T11:42:46.000Z,386
2024-03-02T11:43:50.000Z,377
2024-03-02T11:44:54.000Z,400
2024-03-02T11:45:58.000Z,400
2024-03-02T11:47:02.000Z,373
2024-03-02T11:48:06.000Z,358
2024-03-02T11:49:11.000Z,350
2024-03-02T11:50:15.000Z,349
2024-03-02T11:51:19.000Z,348
2024-03-02T11:52:23.000Z,347
2024-03-02T11:53:27.000Z,356
2024-03-02T11:54:31.000Z,355
2024-03-02T11:55:35.000Z,356
2024-03-02T11:56:40.000Z,353
2024-03-02T11:57:44.000Z,373
2024-03-02T11:58:48.000Z,393
2024-03-02T11:59:52.000Z,384
2024-03-02T12:00:56.000Z,344
2024-03-02T12:02:00.000Z,335
2024-03-02T12:03:05.000Z,358
2024-03-02T12:04:09.000Z,330
2024-03-02T12:05:13.000Z,317
2024-03-02T12:06:17.000Z,328
2024-03-02T12:07:21.000Z,329
2024-03-02T12:08:25.000Z,350
2024-03-02T12:09:29.000Z,398
2024-03-02T12:10:34.000Z,412
2024-03-02T12:11:38.000Z,383
2024-03-02T12:12:42.000Z,368
2024-03-02T12:13:46.000Z,365
2024-03-02T12:14:50.000Z,362
2024-03-02T12:15:54.000Z,362
2024-03-02T12:16:59.000Z,361
2024-03-02T12:18:03.000Z,354
2024-03-02T12:19:07.000Z,346
2024-03-02T12:20:11.000Z,342
2024-03-02T12:21:15.000Z,336
2024-03-02T12:22:19.000Z,347
2024-03-02T12:23:23.000Z,358
2024-03-02T12:24:28.000Z,156
2024-03-02T12:25:32.000Z,353
2024-03-02T12:26:36.000Z,370
2024-03-02T12:27:40.000Z,386
2024-03-02T12:28:44.000Z,374
2024-03-02T12:29:48.000Z,381
2024-03-02T12:30:52.000Z,392
2024-03-02T12:31:57.000Z,383
2024-03-02T12:33:01.000Z,372
2024-03-02T12:34:05.000Z,129
2024-03-02T12:35:09.000Z,118
2024-03-02T12:36:13.000Z,117
2024-03-02T12:37:17.000Z,162
2024-03-02T12:38:21.000Z,154
2024-03-02T12:39:26.000Z,184
2024-03-02T12:40:30.000Z,170
2024-03-02T12:41:34.000Z,177
2024-03-02T12:42:38.000Z,353
2024-03-02T12:43:42.000Z,222
2024-03-02T12:44:46.000Z,295
2024-03-02T12:45:51.000Z,393
2024-03-02T12:46:55.000Z,412
2024-03-02T12:47:59.000Z,409
2024-03-02T12:49:03.000Z,399
2024-03-02T12:50:07.000Z,510
2024-03-02T12:51:11.000Z,353
2024-03-02T12:52:16.000Z,360
2024-03-02T12:53:20.000Z,146
2024-03-02T12:54:24.000Z,144
2024-03-02T12:55:28.000Z,161
2024-03-02T12:56:32.000Z,316
2024-03-02T12:57:36.000Z,148
2024-03-02T12:58:40.000Z,294
2024-03-02T12:59:45.000Z,332
2024-03-02T13:00:49.000Z,142
2024-03-02T13:01:53.000Z,144
2024-03-02T13:02:57.000Z,240
2024-03-02T13:04:01.000Z,221
2024-03-02T13:05:05.000Z,297
2024-03-02T13:06:09.000Z,332
2024-03-02T13:07:14.000Z,352
2024-03-02T13:08:18.000Z,166
2024-03-02T13:09:22.000Z,246
2024-03-02T13:10:26.000Z,330
2024-03-02T13:11:30.000Z,332
2024-03-02T13:12:34.000Z,318
2024-03-02T13:13:38.000Z,307
2024-03-02T13:14:43.000Z,307
2024-03-02T13:15:47.000Z,305
2024-03-02T13:16:51.000Z,292
2024-03-02T13:17:55.000Z,299
2024-03-02T13:18:59.000Z,302
2024-03-02T13:20:03.000Z,299
2024-03-02T13:21:08.000Z,289
2024-03-02T13:22:12.000Z,293
2024-03-02T13:23:16.000Z,287
2024-03-02T13:24:20.000Z,294
2024-03-02T13:25:24.000Z,289
2024-03-02T13:26:28.000Z,286
2024-03-02T13:27:32.000Z,281
2024-03-02T13:28:37.000Z,280
2024-03-02T13:29:41.000Z,280
2024-03-02T13:30:45.000Z,287
2024-03-02T13:31:49.000Z,280
2024-03-02T13:32:53.000Z,270
2024-03-02T13:33:57.000Z,276
2024-03-02T13:35:01.000Z,267
2024-03-02T13:36:05.000Z,271
2024-03-02T13:37:10.000Z,281
2024-03-02T13:38:14.000Z,278
2024-03-02T13:39:18.000Z,283
2024-03-02T13:40:22.000Z,287
2024-03-02T13:41:26.000Z,291
2024-03-02T13:42:30.000Z,289
2024-03-02T13:43:34.000Z,284
2024-03-02T13:44:39.000Z,283
2024-03-02T13:45:43.000Z,267
2024-03-02T13:46:47.000Z,277
2024-03-02T13:47:51.000Z,267
2024-03-02T13:48:55.000Z,274
2024-03-02T13:49:59.000Z,266
2024-03-02T13:51:04.000Z,263
2024-03-02T13:52:08.000Z,256
2024-03-02T13:53:12.000Z,246
2024-03-02T13:54:16.000Z,248
2024-03-02T13:55:20.000Z,250
2024-03-02T13:56:24.000Z,241
2024-03-02T13:57:29.000Z,236
2024-03-02T13:58:33.000Z,229
2024-03-02T13:59:37.000Z,225
2024-03-02T14:00:41.000Z,199
2024-03-02T14:01:45.000Z,217
2024-03-02T14:02:49.000Z,197
2024-03-02T14:03:53.000Z,205
2024-03-02T14:04:58.000Z,220
2024-03-02T14:06:02.000Z,223
2024-03-02T14:07:06.000Z,225
2024-03-02T14:08:10.000Z,233
2024-03-02T14:09:14.000Z,230
2024-03-02T14:10:18.000Z,218
2024-03-02T14:11:23.000Z,138
2024-03-02T14:12:27.000Z,203
2024-03-02T14:13:31.000Z,232
2024-03-02T14:14:35.000Z,231
2024-03-02T14:15:39.000Z,234
2024-03-02T14:16:43.000Z,236
2024-03-02T14:17:47.000Z,233
2024-03-02T14:18:52.000Z,231
2024-03-02T14:19:56.000Z,232
2024-03-02T14:21:00.000Z,227
2024-03-02T14:22:04.000Z,226
2024-03-02T14:23:08.000Z,226
2024-03-02T14:24:12.000Z,164
2024-03-02T14:25:16.000Z,129
2024-03-02T14:26:21.000Z,132
2024-03-02T14:27:25.000Z,136
2024-03-02T14:28:29.000Z,198
2024-03-02T14:29:33.000Z,179
2024-03-02T14:30:37.000Z,173
2024-03-02T14:31:41.000Z,167
2024-03-02T14:32:45.000Z,154
2024-03-02T14:33:50.000Z,142
2024-03-02T14:34:54.000Z,138
2024-03-02T14:35:58.000Z,134
2024-03-02T14:37:02.000Z,135
2024-03-02T14:38:06.000Z,137
2024-03-02T14:39:10.000Z,127
2024-03-02T14:40:14.000Z,112
2024-03-02T14:41:19.000Z,111
2024-03-02T14:42:23.000Z,112
2024-03-02T14:43:27.000Z,108
2024-03-02T14:44:31.000Z,100
2024-03-02T14:45:35.000Z,97
2024-03-02T14:46:39.000Z,95
2024-03-02T14:47:43.000Z,90
2024-03-02T14:48:48.000Z,88
2024-03-02T14:49:52.000Z,87
2024-03-02T14:50:56.000Z,85
2024-03-02T14:52:00.000Z,85
2024-03-02T14:53:04.000Z,84
2024-03-02T14:54:08.000Z,82
2024-03-02T14:55:12.000Z,82
2024-03-02T14:56:17.000Z,81
2024-03-02T14:57:21.000Z,81
2024-03-02T14:58:25.000Z,82
2024-03-02T14:59:29.000Z,81
2024-03-02T15:00:33.000Z,80
2024-03-02T15:01:37.000Z,80
2024-03-02T15:02:42.000Z,79
2024-03-02T15:03:46.000Z,78
2024-03-02T15:04:50.000Z,77
2024-03-02T15:05:54.000Z,76
2024-03-02T15:06:58.000Z,76
2024-03-02T15:08:02.000Z,75
2024-03-02T15:09:07.000Z,74
2024-03-02T15:10:11.000Z,73
2024-03-02T15:11:15.000Z,72
2024-03-02T15:12:19.000Z,72
2024-03-02T15:13:23.000Z,71
2024-03-02T15:14:27.000Z,70